• Join FlightAware (Why Join?)
  • Login
  • US Flag 
12:33PM EDT


 

Airport Tracker/Info


-or-


 

Live Flight TrackerFlight Track Log ✈ XOJ549 ✈ 23-Jun-2013 ✈ KAUS - KTEB

Flight Track Log - Related Links

Times and Time Zones

All times are in EDT time to prevent confusion due to time zone crossing. See the XOJ549 flight status page for this flight to view local times or setup timezone preferences in your user account.

Time Position Orientation Groundspeed Altitude Reporting Facility
EDT Latitude Longitude Course Direction KTS MPH feet Rate Location/Type
07:09PM 30.1300 -97.6506 327° Northwest 182 209 4,000  Level Houston Center
07:10PM 30.1139 -97.7061 251° West 229 264 7,900 3,720 Climbing Houston Center
07:11PM 30.1406 -97.7767 294° West 239 275 11,700 2,460 Climbing Houston Center
07:12PM 30.2058 -97.8369 321° Northwest 325 374 13,000 2,220 Climbing Houston Center
07:13PM 30.2956 -97.8644 345° North 330 380 16,400 2,760 Climbing Houston Center
07:14PM 30.7875 -97.8364 327° Northwest  Level FlightAware Approximate
07:14PM 30.3858 -97.8914 346° North 330 380 18,800  Level Houston Center
07:15PM 30.4856 -97.9239 344° North 359 413 21,000 2,340 Climbing Houston Center
07:16PM 30.5889 -97.9050 North 386 444 23,700 2,820 Climbing Houston Center
07:17PM 30.6756 -97.7969 47° Northeast 386 444 26,900 2,640 Climbing Houston Center
07:18PM 30.7519 -97.7028 47° Northeast 393 452 29,200 2,220 Climbing Houston Center
07:19PM 30.8289 -97.6075 47° Northeast 398 458 31,500 1,500 Climbing Houston Center
07:20PM 30.9111 -97.5053 47° Northeast 420 483 32,400 1,080 Climbing Houston Center
07:21PM 31.0033 -97.3933 46° Northeast 462 532 33,800 1,380 Climbing Houston Center
07:22PM 31.0981 -97.2725 48° Northeast 484 557 35,300 1,500 Climbing Houston Center
07:23PM 31.1897 -97.1556 47° Northeast 481 554 36,900 1,500 Climbing Houston Center
07:24PM 31.2797 -97.0400 48° Northeast 477 549 38,500 1,620 Climbing Houston Center
07:25PM 31.3678 -96.9289 47° Northeast 466 536 40,300 1,200 Climbing Houston Center
07:26PM 31.4519 -96.8189 48° Northeast 453 521 41,000 300 Climbing Houston Center
07:27PM 31.5211 -96.6883 58° Northeast 467 537 41,000  Level Houston Center
07:28PM 31.5917 -96.5542 58° Northeast 480 552 41,000  Level Houston Center
07:29PM 31.6719 -96.4019 58° Northeast 470 541 41,000  Level Houston Center
07:31PM 31.7403 -96.2717 58° Northeast 468 539 41,000  Level Houston Center
07:32PM 31.8097 -96.1397 58° Northeast 472 543 41,000  Level Houston Center
07:33PM 31.8836 -95.9994 58° Northeast 472 543 41,000  Level Houston Center
07:34PM 31.9492 -95.8733 58° Northeast 463 533 41,000  Level Fort Worth Center
07:35PM 32.0144 -95.7375 60° Northeast 463 533 41,000  Level Fort Worth Center
07:36PM 32.0856 -95.6064 57° Northeast 468 539 41,000  Level Fort Worth Center
07:37PM 32.1525 -95.4747 59° Northeast 468 539 41,000  Level Fort Worth Center
07:38PM 32.2192 -95.3383 60° Northeast 473 544 41,000  Level Fort Worth Center
07:39PM 32.2881 -95.2017 59° Northeast 478 550 41,000  Level Fort Worth Center
07:40PM 32.3544 -95.0697 59° Northeast 478 550 41,000  Level Fort Worth Center
07:41PM 32.4206 -94.9303 61° Northeast 478 550 41,000  Level Fort Worth Center
07:42PM 32.4911 -94.7978 58° Northeast 473 544 41,000  Level Fort Worth Center
07:43PM 32.5592 -94.6603 60° Northeast 478 550 41,000  Level Fort Worth Center
07:44PM 32.6250 -94.5250 60° Northeast 478 550 41,000  Level Fort Worth Center
07:45PM 32.6947 -94.3894 59° Northeast 478 550 41,000  Level Fort Worth Center
07:46PM 32.7603 -94.2539 60° Northeast 478 550 41,000  Level Fort Worth Center
07:47PM 32.8300 -94.1156 59° Northeast 478 550 41,000  Level Fort Worth Center
07:48PM 32.8953 -93.9819 60° Northeast 478 550 41,000  Level Fort Worth Center
07:49PM 32.9625 -93.8481 59° Northeast 478 550 41,000  Level Fort Worth Center
07:50PM 33.0294 -93.7117 60° Northeast 478 550 41,000  Level Fort Worth Center
07:51PM 33.0942 -93.5750 60° Northeast 478 550 41,000  Level Fort Worth Center
07:52PM 33.1611 -93.4408 59° Northeast 478 550 41,000  Level Fort Worth Center
07:53PM 33.2256 -93.3039 61° Northeast 478 550 41,000 240 Level Fort Worth Center
07:54PM 33.2919 -93.1689 60° Northeast 478 550 41,500 600 Climbing Fort Worth Center
07:55PM 33.3583 -93.0364 59° Northeast 478 550 42,300 660 Climbing Fort Worth Center
07:56PM 33.4183 -92.9108 60° Northeast 473 544 42,900 540 Climbing Memphis Center
07:57PM 33.4814 -92.7781 60° Northeast 478 550 43,400 480 Climbing Memphis Center
07:58PM 33.5444 -92.6453 60° Northeast 472 543 43,900 480 Climbing Memphis Center
07:59PM 33.6094 -92.5122 60° Northeast 467 537 44,400 480 Climbing Memphis Center
08:00PM 33.6744 -92.3792 60° Northeast 461 531 44,900 300 Climbing Memphis Center
08:01PM 33.7369 -92.2456 61° Northeast 455 524 45,000  Climbing Memphis Center
08:02PM 33.8014 -92.1119 60° Northeast 455 524 45,000  Level Memphis Center
08:03PM 33.8639 -91.9758 61° Northeast 455 524 45,000  Level Memphis Center
08:04PM 33.9261 -91.8367 62° Northeast 455 524 45,000  Level Memphis Center
08:05PM 33.9861 -91.7050 61° Northeast 455 524 45,000  Level Memphis Center
08:06PM 34.0458 -91.5681 62° Northeast 449 517 45,000  Level Memphis Center
08:07PM 34.1097 -91.4308 61° Northeast 455 524 45,000  Level Memphis Center
08:08PM 34.1733 -91.2961 60° Northeast 455 524 45,000  Level Memphis Center
08:09PM 34.2350 -91.1586 61° Northeast 455 524 45,000  Level Memphis Center
08:10PM 34.3025 -91.0058 62° Northeast 455 524 45,000  Level Memphis Center
08:11PM 34.3636 -90.8706 61° Northeast 455 524 45,000  Level Memphis Center
08:12PM 34.4247 -90.7347 61° Northeast 455 524 45,000  Level Memphis Center
08:13PM 34.4875 -90.5989 61° Northeast 455 524 45,000  Level Memphis Center
08:14PM 34.5461 -90.4631 62° Northeast 455 524 45,000  Level Memphis Center
08:15PM 34.6067 -90.3319 61° Northeast 455 524 45,000  Level Memphis Center
08:16PM 34.6650 -90.1981 62° Northeast 455 524 45,000  Level Memphis Center
08:17PM 34.7253 -90.0614 62° Northeast 455 524 45,000  Level Memphis Center
08:18PM 34.7750 -89.9500 61° Northeast 437 503 45,000  Level Memphis Center
08:19PM 34.8411 -89.7878 64° Northeast 444 511 45,000  Level Memphis Center
08:20PM 34.8989 -89.6506 63° Northeast 451 519 45,000  Level Memphis Center
08:21PM 34.9647 -89.5083 61° Northeast 490 564 45,000  Level Memphis Center
08:22PM 35.0242 -89.3731 62° Northeast 461 531 45,000  Level Memphis Center
08:23PM 35.0814 -89.2381 63° Northeast 443 510 45,000  Level Memphis Center
08:24PM 35.1386 -89.1028 63° Northeast 443 510 45,000  Level Memphis Center
08:25PM 35.1978 -88.9644 62° Northeast 453 521 45,000  Level Memphis Center
08:26PM 35.2586 -88.8261 62° Northeast 453 521 45,000  Level Memphis Center
08:27PM 35.3092 -88.7031 63° Northeast 453 521 45,000  Level Memphis Center
08:28PM 35.3678 -88.5669 62° Northeast 453 521 45,000  Level Memphis Center
08:29PM 35.4281 -88.4131 64° Northeast 453 521 45,000  Level Memphis Center
08:30PM 35.4883 -88.2764 62° Northeast 453 521 45,000  Level Memphis Center
08:31PM 35.5344 -88.1656 63° Northeast 453 521 45,000  Level Memphis Center
08:32PM 35.6025 -88.0053 62° Northeast 448 516 45,000  Level Memphis Center
08:33PM 35.6581 -87.8683 63° Northeast 448 516 45,000  Level Memphis Center
08:34PM 35.7178 -87.7286 62° Northeast 453 521 45,000  Level Memphis Center
08:35PM 35.7711 -87.5911 64° Northeast 453 521 45,000  Level Memphis Center
08:36PM 35.8283 -87.4511 63° Northeast 453 521 45,000  Level Memphis Center
08:37PM 35.8836 -87.3158 63° Northeast 448 516 45,000  Level Memphis Center
08:38PM 35.9383 -87.1778 64° Northeast 448 516 45,000  Level Memphis Center
08:39PM 35.9933 -87.0397 64° Northeast 448 516 45,000  Level Memphis Center
08:40PM 36.0456 -86.8992 65° Northeast 448 516 45,000  Level Memphis Center
08:41PM 36.1022 -86.7581 64° Northeast 453 521 45,000  Level Memphis Center
08:42PM 36.1542 -86.6117 66° East 453 521 45,000  Level Memphis Center
08:43PM 36.2039 -86.4681 67° East 448 516 45,000  Level Memphis Center
08:44PM 36.2533 -86.3214 67° East 448 516 45,000  Level Memphis Center
08:45PM 36.3006 -86.1750 68° East 453 521 45,000  Level Memphis Center
08:47PM 36.3881 -85.9036 68° East 463 533 45,000  Level Indianapolis Center
08:48PM 36.4369 -85.7514 68° East 465 535 45,000  Level Indianapolis Center
08:49PM 36.4833 -85.6028 69° East 462 532 45,000  Level Indianapolis Center
08:50PM 36.5306 -85.4558 68° East 457 526 45,000  Level Indianapolis Center
08:51PM 36.5772 -85.3028 69° East 465 535 45,000  Level Indianapolis Center
08:52PM 36.6239 -85.1528 69° East 465 535 45,000  Level Indianapolis Center
08:53PM 36.6708 -85.0017 69° East 466 536 45,000  Level Indianapolis Center
08:54PM 36.7156 -84.8503 70° East 461 531 45,000  Level Indianapolis Center
08:55PM 36.7697 -84.6711 69° East 458 527 45,000  Level Indianapolis Center
08:56PM 36.8161 -84.5231 69° East 455 524 45,000  Level Indianapolis Center
08:57PM 36.8575 -84.3803 70° East 458 527 45,000  Level Indianapolis Center
08:58PM 36.9039 -84.2308 69° East 460 529 45,000  Level Indianapolis Center
08:59PM 36.9483 -84.0819 69° East 459 528 45,000  Level Indianapolis Center
09:00PM 36.9919 -83.9300 70° East 459 528 45,000  Level Indianapolis Center
09:01PM 37.0389 -83.7800 69° East 461 531 45,000  Level Indianapolis Center
09:02PM 37.0908 -83.6006 70° East 466 536 45,000  Level Indianapolis Center
09:03PM 37.1353 -83.4469 70° East 466 536 45,000  Level Indianapolis Center
09:04PM 37.1808 -83.2936 70° East 465 535 45,000  Level Indianapolis Center
09:05PM 37.2250 -83.1389 70° East 468 539 45,000  Level Indianapolis Center
09:06PM 37.2697 -82.9836 70° East 467 537 45,000  Level Indianapolis Center
09:07PM 37.3136 -82.8286 70° East 467 537 45,000  Level Indianapolis Center
09:08PM 37.3567 -82.6753 71° East 463 533 45,000  Level Indianapolis Center
09:09PM 37.3992 -82.5228 71° East 461 531 45,000  Level Indianapolis Center
09:10PM 37.4428 -82.3700 70° East 461 531 45,000  Level Indianapolis Center
09:11PM 37.4856 -82.2172 71° East 461 531 45,000  Level Indianapolis Center
09:12PM 37.5275 -82.0636 71° East 462 532 45,000  Level Indianapolis Center
09:13PM 37.5700 -81.9094 71° East 463 533 45,000  Level Indianapolis Center
09:14PM 37.6108 -81.7544 72° East 465 535 45,000  Level Indianapolis Center
09:15PM 37.6603 -81.5753 71° East 463 533 45,000  Level Indianapolis Center
09:16PM 37.7028 -81.4189 71° East 465 535 45,000  Level Indianapolis Center
09:17PM 37.7436 -81.2689 71° East 464 534 45,000  Level Indianapolis Center
09:18PM 37.7811 -81.1164 73° East 469 540 45,000  Level Indianapolis Center
09:19PM 37.7917 -80.9583 85° East 467 537 45,000  Level Indianapolis Center
09:20PM 37.8042 -80.7686 85° East 464 534 45,000  Level Indianapolis Center
09:21PM 37.8139 -80.6114 85° East 469 540 45,000  Level Indianapolis Center
09:22PM 37.8194 -80.5236 85° East 459 528 45,000  Level Washington Center
09:23PM 37.8325 -80.3589 84° East 459 528 45,000  Level Washington Center
09:24PM 37.8408 -80.1964 86° East 459 528 45,000  Level Washington Center
09:25PM 37.8533 -80.0339 84° East 459 528 45,000  Level Washington Center
09:26PM 37.8639 -79.8558 86° East 459 528 45,000  Level Washington Center
09:27PM 37.8758 -79.6933 85° East 459 528 45,000  Level Washington Center
09:28PM 37.8833 -79.5306 87° East 459 528 45,000  Level Washington Center
09:29PM 37.8928 -79.3653 86° East 459 528 45,000  Level Washington Center
09:30PM 37.9019 -79.2025 86° East 459 528 45,000  Level Washington Center
09:31PM 37.9128 -79.0531 85° East 459 528 45,000  Level Washington Center
09:32PM 37.9319 -78.8881 82° East 459 528 45,000  Level Washington Center
09:33PM 37.9511 -78.7228 82° East 464 534 45,000  Level Washington Center
09:34PM 37.9697 -78.5578 82° East 464 534 45,000  Level Washington Center
09:35PM 37.9931 -78.3742 81° East 469 540 45,000  Level Washington Center
09:36PM 38.0133 -78.2117 81° East 469 540 45,000  Level Washington Center
09:37PM 38.0517 -78.0731 71° East 464 534 45,000  Level Washington Center
09:38PM 38.1256 -77.9303 57° Northeast 466 536 45,000  Level Washington Center
09:39PM 38.1950 -77.7872 58° Northeast 466 536 45,000  Level Washington Center
09:40PM 38.2661 -77.6439 58° Northeast 477 549 45,000  Level Washington Center
09:41PM 38.3394 -77.4950 58° Northeast 483 556 45,000  Level Washington Center
09:42PM 38.4083 -77.3536 58° Northeast 483 556 45,000 -600 Level Washington Center
09:43PM 38.4750 -77.2175 58° Northeast 471 542 43,800 -1,920 Descending Washington Center
09:44PM 38.5414 -77.0833 58° Northeast 457 526 41,200 -2,820 Descending Washington Center
09:45PM 38.6183 -76.9203 59° Northeast 464 534 38,300 -2,760 Descending Washington Center
09:46PM 38.6908 -76.7753 57° Northeast 469 540 35,700 -2,640 Descending Washington Center
09:47PM 38.7878 -76.6489 45° Northeast 479 551 33,000 -2,640 Descending Washington Center
09:48PM 38.8889 -76.5303 42° Northeast 485 558 30,400 -2,580 Descending Washington Center
09:49PM 38.9919 -76.4142 41° Northeast 485 558 27,800 -2,580 Descending Washington Center
09:50PM 39.0864 -76.3003 43° Northeast 472 543 25,300 -1,920 Descending Washington Center
09:51PM 39.1808 -76.1942 41° Northeast 460 529 24,000 -660 Descending Washington Center
09:52PM 39.2667 -76.0983 41° Northeast 460 529 24,000 -1,200 Level Washington Center
09:54PM 39.4667 -75.9000 37° Northeast 419 482 20,500 -1,920 Descending Philadelphia TRACON
09:55PM 39.5500 -75.8333 32° Northeast 398 458 18,600 -2,100 Descending Philadelphia TRACON
09:56PM 39.6333 -75.7500 38° Northeast 381 438 16,600 -2,040 Descending Philadelphia TRACON
09:57PM 39.7167 -75.6667 38° Northeast 366 421 14,600 -1,800 Descending Philadelphia TRACON
09:58PM 39.8000 -75.6000 32° Northeast 349 402 13,100 -780 Descending Philadelphia TRACON
09:59PM 39.8833 -75.5167 37° Northeast 376 433 13,000 -60 Descending Philadelphia TRACON
10:00PM 39.9833 -75.4333 33° Northeast 382 440 13,000  Level Philadelphia TRACON
10:01PM 40.0667 -75.3500 37° Northeast 366 421 13,000  Level Philadelphia TRACON
10:02PM 40.1500 -75.2833 31° Northeast 360 414 13,000 -1,020 Level Philadelphia TRACON
10:04PM 40.3000 -75.1167 40° Northeast 295 339 9,700 -1,440 Descending New York TRACON
10:05PM 40.3667 -75.0500 37° Northeast 289 333 8,100 -1,680 Descending New York TRACON
10:06PM 40.4167 -74.9833 45° Northeast 279 321 6,400 -1,800 Descending New York TRACON
10:07PM 40.4667 -74.9000 52° Northeast 278 320 4,600 -1,140 Descending New York TRACON
10:08PM 40.5333 -74.8167 44° Northeast 276 318 4,100 -300 Descending New York TRACON
10:09PM 40.5833 -74.7500 45° Northeast 271 312 4,100  Level New York TRACON
10:10PM 40.6333 -74.6667 52° Northeast 270 311 4,100 -60 Level New York TRACON
10:11PM 40.6833 -74.6000 45° Northeast 274 315 4,000 -480 Descending New York TRACON
10:12PM 40.7333 -74.5167 52° Northeast 270 311 3,200 -480 Descending New York TRACON
10:13PM 40.7833 -74.4500 45° Northeast 269 310 3,100 -60 Descending New York TRACON
10:14PM 40.8333 -74.3833 45° Northeast 273 314 3,100  Level New York TRACON
10:15PM 40.8833 -74.3000 52° Northeast 275 316 3,100 -120 Level New York TRACON
10:16PM 40.9333 -74.2333 45° Northeast 276 318 2,900 -540 Descending New York TRACON
10:17PM 40.9667 -74.1500 62° Northeast 252 290 2,100 -480 Descending New York TRACON
10:18PM 40.9833 -74.0833 72° East 201 231 2,100  Level New York TRACON
10:19PM 40.9667 -74.0500 124° Southeast 152 175 2,100 -300 Level New York TRACON
10:20PM 40.9333 -74.0500 180° South 125 144 1,500 -600 Descending New York TRACON